createdAt,value
2019-02-03T00:00:12.221Z,926.78
2019-02-03T00:00:25.187Z,926.74
2019-02-03T00:00:38.283Z,926.77
2019-02-03T00:00:51.991Z,926.76
2019-02-03T00:01:05.143Z,926.76
2019-02-03T00:01:18.148Z,926.78
2019-02-03T00:01:31.199Z,926.77
2019-02-03T00:01:43.834Z,926.79
2019-02-03T00:01:57.194Z,926.8
2019-02-03T00:02:10.497Z,926.79
2019-02-03T00:02:23.532Z,926.82
2019-02-03T00:02:36.538Z,926.82
2019-02-03T00:02:50.403Z,926.82
2019-02-03T00:03:03.853Z,926.84
2019-02-03T00:03:17.271Z,926.82
2019-02-03T00:03:30.400Z,926.88
2019-02-03T00:03:43.440Z,926.84
2019-02-03T00:03:56.528Z,926.9
2019-02-03T00:04:09.560Z,926.87
2019-02-03T00:04:23.128Z,926.86
2019-02-03T00:04:36.141Z,926.9
2019-02-03T00:04:49.148Z,926.88
2019-02-03T00:05:02.195Z,926.91
2019-02-03T00:05:15.257Z,926.88
2019-02-03T00:05:28.910Z,926.89
2019-02-03T00:05:41.643Z,926.92
2019-02-03T00:05:54.628Z,926.9
2019-02-03T00:06:07.618Z,926.9
2019-02-03T00:06:20.575Z,926.9
2019-02-03T00:06:34.241Z,926.92
2019-02-03T00:06:47.379Z,926.94
2019-02-03T00:07:13.049Z,926.94
2019-02-03T00:07:26.124Z,926.99
2019-02-03T00:07:39.388Z,926.9
2019-02-03T00:07:52.609Z,926.94
2019-02-03T00:08:05.739Z,927
2019-02-03T00:08:18.747Z,926.97
2019-02-03T00:08:31.822Z,926.96
2019-02-03T00:08:44.986Z,926.96
2019-02-03T00:08:58.621Z,926.95
2019-02-03T00:09:11.699Z,926.97
2019-02-03T00:09:24.934Z,926.97
2019-02-03T00:09:38.010Z,926.91
2019-02-03T00:09:51.089Z,926.95
2019-02-03T00:10:04.736Z,926.93
2019-02-03T00:10:17.733Z,926.96
2019-02-03T00:10:30.312Z,926.99
2019-02-03T00:10:43.335Z,926.97
2019-02-03T00:10:55.985Z,926.93
2019-02-03T00:11:09.610Z,926.95
2019-02-03T00:11:22.779Z,926.91
2019-02-03T00:11:35.791Z,926.97
2019-02-03T00:11:48.790Z,926.96
2019-02-03T00:12:01.756Z,926.98
2019-02-03T00:12:15.439Z,926.98
2019-02-03T00:12:28.513Z,926.92
2019-02-03T00:12:41.611Z,926.96
2019-02-03T00:12:54.741Z,926.98
2019-02-03T00:13:07.770Z,926.98
2019-02-03T00:13:21.120Z,926.96
2019-02-03T00:13:35.348Z,926.96
2019-02-03T00:13:48.430Z,926.96
2019-02-03T00:14:01.487Z,926.97
2019-02-03T00:14:14.607Z,926.95
2019-02-03T00:14:27.926Z,926.97
2019-02-03T00:14:41.490Z,926.98
2019-02-03T00:14:54.511Z,926.99
2019-02-03T00:15:07.526Z,926.97
2019-02-03T00:15:20.554Z,926.99
2019-02-03T00:15:33.622Z,926.99
2019-02-03T00:15:47.223Z,926.98
2019-02-03T00:16:00.285Z,926.96
2019-02-03T00:16:13.320Z,926.96
2019-02-03T00:16:26.358Z,926.97
2019-02-03T00:16:39.486Z,926.98
2019-02-03T00:16:53.174Z,926.98
2019-02-03T00:17:06.145Z,927
2019-02-03T00:17:19.172Z,927.02
2019-02-03T00:17:32.182Z,926.99
2019-02-03T00:17:46.107Z,927.02
2019-02-03T00:17:59.605Z,927.01
2019-02-03T00:18:12.653Z,927.01
2019-02-03T00:18:25.673Z,927.03
2019-02-03T00:18:38.671Z,927.03
2019-02-03T00:18:52.239Z,927.05
2019-02-03T00:19:05.764Z,927.05
2019-02-03T00:19:18.840Z,927.07
2019-02-03T00:19:31.897Z,927.04
2019-02-03T00:19:44.954Z,927.04
2019-02-03T00:19:58.003Z,927.09
2019-02-03T00:20:11.288Z,927.1
2019-02-03T00:20:24.525Z,927.1
2019-02-03T00:20:37.546Z,927.08
2019-02-03T00:20:50.602Z,927.08
2019-02-03T00:21:03.677Z,927.12
2019-02-03T00:21:16.990Z,927.09
2019-02-03T00:21:30.719Z,927.1
2019-02-03T00:21:43.673Z,927.12
2019-02-03T00:21:56.709Z,927.12
2019-02-03T00:22:09.285Z,927.13
2019-02-03T00:22:22.343Z,927.13
2019-02-03T00:22:36.077Z,927.15
2019-02-03T00:22:49.169Z,927.14
2019-02-03T00:23:02.165Z,927.13
2019-02-03T00:23:15.343Z,927.16
2019-02-03T00:23:28.421Z,927.14
2019-02-03T00:23:42.074Z,927.14
2019-02-03T00:23:55.026Z,927.12
2019-02-03T00:24:08.142Z,927.11
2019-02-03T00:24:21.245Z,927.14
2019-02-03T00:24:33.811Z,927.13
2019-02-03T00:24:47.396Z,927.12
2019-02-03T00:25:00.429Z,927.13
2019-02-03T00:25:13.443Z,927.17
2019-02-03T00:25:26.571Z,927.14
2019-02-03T00:25:39.566Z,927.15
2019-02-03T00:25:52.858Z,927.13
2019-02-03T00:26:06.137Z,927.14
2019-02-03T00:26:21.819Z,927.18
2019-02-03T00:26:34.874Z,927.15
2019-02-03T00:26:47.438Z,927.13
2019-02-03T00:27:00.783Z,927.15
2019-02-03T00:27:14.211Z,927.14
2019-02-03T00:27:27.281Z,927.16
2019-02-03T00:27:40.279Z,927.17
2019-02-03T00:27:53.356Z,927.12
2019-02-03T00:28:05.936Z,927.17
2019-02-03T00:28:19.532Z,927.14
2019-02-03T00:28:32.568Z,927.15
2019-02-03T00:28:45.580Z,927.2
2019-02-03T00:28:58.653Z,927.19
2019-02-03T00:29:11.749Z,927.18
2019-02-03T00:29:25.432Z,927.16
2019-02-03T00:29:38.473Z,927.21
2019-02-03T00:29:51.558Z,927.19
2019-02-03T00:30:04.629Z,927.2
2019-02-03T00:30:17.710Z,927.21
2019-02-03T00:30:31.237Z,927.21
2019-02-03T00:30:44.329Z,927.21
2019-02-03T00:30:57.373Z,927.22
2019-02-03T00:31:10.409Z,927.24
2019-02-03T00:31:23.482Z,927.22
2019-02-03T00:31:37.055Z,927.24
2019-02-03T00:31:50.345Z,927.23
2019-02-03T00:32:03.370Z,927.26
2019-02-03T00:32:16.375Z,927.25
2019-02-03T00:32:29.396Z,927.23
2019-02-03T00:32:42.819Z,927.21
2019-02-03T00:32:58.799Z,927.24
2019-02-03T00:33:12.080Z,927.23
2019-02-03T00:33:25.180Z,927.26
2019-02-03T00:33:38.382Z,927.23
2019-02-03T00:33:51.900Z,927.25
2019-02-03T00:34:05.158Z,927.24
2019-02-03T00:34:18.245Z,927.21
2019-02-03T00:34:31.251Z,927.22
2019-02-03T00:34:44.327Z,927.21
2019-02-03T00:34:57.755Z,927.21
2019-02-03T00:35:11.249Z,927.22
2019-02-03T00:35:24.227Z,927.23
2019-02-03T00:35:37.260Z,927.24
2019-02-03T00:35:50.312Z,927.24
2019-02-03T00:36:03.359Z,927.25
2019-02-03T00:36:16.880Z,927.21
2019-02-03T00:36:29.930Z,927.21
2019-02-03T00:36:43.007Z,927.21
2019-02-03T00:36:55.986Z,927.22
2019-02-03T00:37:20.518Z,927.21
2019-02-03T00:37:33.686Z,927.18
2019-02-03T00:37:46.875Z,927.2
2019-02-03T00:38:00.289Z,927.2
2019-02-03T00:38:27.513Z,927.23
2019-02-03T00:38:40.868Z,927.21
2019-02-03T00:38:54.191Z,927.2
2019-02-03T00:39:07.362Z,927.23
2019-02-03T00:39:20.617Z,927.22
2019-02-03T00:39:34.470Z,927.22
2019-02-03T00:39:47.910Z,927.22
2019-02-03T00:40:01.287Z,927.28
2019-02-03T00:40:14.314Z,927.24
2019-02-03T00:40:27.437Z,927.25
2019-02-03T00:40:41.089Z,927.25
2019-02-03T00:40:54.685Z,927.24
2019-02-03T00:41:07.974Z,927.24
2019-02-03T00:41:21.148Z,927.27
2019-02-03T00:41:34.031Z,927.29
2019-02-03T00:41:47.595Z,927.27
2019-02-03T00:42:01.487Z,927.27
2019-02-03T00:42:14.556Z,927.28
2019-02-03T00:42:27.537Z,927.33
2019-02-03T00:42:40.600Z,927.29
2019-02-03T00:42:53.657Z,927.3
2019-02-03T00:43:07.294Z,927.32
2019-02-03T00:43:20.264Z,927.3
2019-02-03T00:43:33.402Z,927.32
2019-02-03T00:43:46.541Z,927.3
2019-02-03T00:43:59.615Z,927.3
2019-02-03T00:44:13.302Z,927.32
2019-02-03T00:44:28.858Z,927.29
2019-02-03T00:44:41.889Z,927.24
2019-02-03T00:44:54.935Z,927.29
2019-02-03T00:45:07.933Z,927.3
2019-02-03T00:45:21.537Z,927.29
2019-02-03T00:45:34.563Z,927.29
2019-02-03T00:45:47.614Z,927.28
2019-02-03T00:46:00.671Z,927.31
2019-02-03T00:46:13.324Z,927.29
2019-02-03T00:46:26.965Z,927.31
2019-02-03T00:46:40.001Z,927.3
2019-02-03T00:46:53.049Z,927.26
2019-02-03T00:47:06.155Z,927.27
2019-02-03T00:47:19.195Z,927.33
2019-02-03T00:47:33.503Z,927.3
2019-02-03T00:47:46.479Z,927.34
2019-02-03T00:48:00.278Z,927.3
2019-02-03T00:48:12.971Z,927.32
2019-02-03T00:48:26.001Z,927.3
2019-02-03T00:48:39.581Z,927.3
2019-02-03T00:48:53.075Z,927.31
2019-02-03T00:49:06.116Z,927.32
2019-02-03T00:49:19.122Z,927.34
2019-02-03T00:49:32.223Z,927.34
2019-02-03T00:49:45.622Z,927.33
2019-02-03T00:49:58.991Z,927.35
2019-02-03T00:50:12.076Z,927.38
2019-02-03T00:50:25.112Z,927.34
2019-02-03T00:50:38.220Z,927.36
2019-02-03T00:50:51.252Z,927.35
2019-02-03T00:51:04.987Z,927.38
2019-02-03T00:51:20.067Z,927.32
2019-02-03T00:51:33.109Z,927.36
2019-02-03T00:51:46.134Z,927.36
2019-02-03T00:51:58.703Z,927.37
2019-02-03T00:52:12.170Z,927.34
2019-02-03T00:52:25.213Z,927.32
2019-02-03T00:52:38.282Z,927.34
2019-02-03T00:52:51.359Z,927.35
2019-02-03T00:53:03.962Z,927.34
2019-02-03T00:53:17.455Z,927.36
2019-02-03T00:53:30.527Z,927.33
2019-02-03T00:53:43.523Z,927.34
2019-02-03T00:53:56.575Z,927.33
2019-02-03T00:54:09.605Z,927.35
2019-02-03T00:54:23.180Z,927.33
2019-02-03T00:54:36.200Z,927.33
2019-02-03T00:54:49.259Z,927.32
2019-02-03T00:55:02.236Z,927.33
2019-02-03T00:55:14.768Z,927.34
2019-02-03T00:55:28.111Z,927.35
2019-02-03T00:55:41.487Z,927.33
2019-02-03T00:55:54.518Z,927.34
2019-02-03T00:56:07.525Z,927.32
2019-02-03T00:56:19.717Z,927.33
2019-02-03T00:56:32.764Z,927.29
2019-02-03T00:56:46.354Z,927.29
2019-02-03T00:56:59.373Z,927.34
2019-02-03T00:57:12.411Z,927.29
2019-02-03T00:57:25.430Z,927.35
2019-02-03T00:57:39.561Z,927.32
2019-02-03T00:57:53.170Z,927.31
2019-02-03T00:58:06.181Z,927.29
2019-02-03T00:58:19.237Z,927.31
2019-02-03T00:58:32.275Z,927.31
2019-02-03T00:58:45.337Z,927.31
2019-02-03T00:58:58.864Z,927.32
2019-02-03T00:59:11.909Z,927.29
2019-02-03T00:59:24.918Z,927.3
2019-02-03T00:59:37.905Z,927.32
2019-02-03T00:59:50.939Z,927.29
2019-02-03T01:00:04.494Z,927.3
2019-02-03T01:00:17.710Z,927.3
2019-02-03T01:00:30.770Z,927.3
2019-02-03T01:00:43.735Z,927.33
2019-02-03T01:00:56.716Z,927.3
2019-02-03T01:01:10.048Z,927.32
2019-02-03T01:01:23.427Z,927.31
2019-02-03T01:01:36.450Z,927.32
2019-02-03T01:01:49.452Z,927.33
2019-02-03T01:02:02.481Z,927.31
2019-02-03T01:02:15.525Z,927.36
2019-02-03T01:02:29.219Z,927.33
2019-02-03T01:02:42.226Z,927.32
2019-02-03T01:02:55.238Z,927.33
2019-02-03T01:03:08.955Z,927.35
2019-02-03T01:03:22.000Z,927.35
2019-02-03T01:03:36.877Z,927.32
2019-02-03T01:03:49.915Z,927.32
2019-02-03T01:04:02.928Z,927.32
2019-02-03T01:04:16.000Z,927.33
2019-02-03T01:04:28.976Z,927.38
2019-02-03T01:04:42.535Z,927.37
2019-02-03T01:04:55.541Z,927.39
2019-02-03T01:05:08.594Z,927.37
2019-02-03T01:05:21.626Z,927.38
2019-02-03T01:05:34.585Z,927.39
2019-02-03T01:05:48.339Z,927.44
2019-02-03T01:06:01.501Z,927.4
2019-02-03T01:06:14.583Z,927.42
2019-02-03T01:06:27.672Z,927.39
2019-02-03T01:06:40.695Z,927.37
2019-02-03T01:06:54.338Z,927.35
2019-02-03T01:07:07.513Z,927.34
2019-02-03T01:07:31.268Z,927.35
2019-02-03T01:07:44.254Z,927.4
2019-02-03T01:07:57.247Z,927.39
2019-02-03T01:08:10.701Z,927.37
2019-02-03T01:08:23.711Z,927.4
2019-02-03T01:08:36.714Z,927.4
2019-02-03T01:08:49.695Z,927.37
2019-02-03T01:09:02.723Z,927.41
2019-02-03T01:09:16.381Z,927.42
2019-02-03T01:09:29.482Z,927.4
2019-02-03T01:09:44.098Z,927.38
2019-02-03T01:09:57.210Z,927.41
2019-02-03T01:10:10.296Z,927.42
2019-02-03T01:10:23.920Z,927.39
2019-02-03T01:10:37.037Z,927.37
2019-02-03T01:10:50.099Z,927.42
2019-02-03T01:11:03.142Z,927.37
2019-02-03T01:11:16.199Z,927.41
2019-02-03T01:11:29.725Z,927.38
2019-02-03T01:11:42.757Z,927.38
2019-02-03T01:11:55.778Z,927.4
2019-02-03T01:12:08.850Z,927.41
2019-02-03T01:12:21.926Z,927.41
2019-02-03T01:12:35.322Z,927.45
2019-02-03T01:12:48.639Z,927.42
2019-02-03T01:13:01.680Z,927.43
2019-02-03T01:13:14.742Z,927.46
2019-02-03T01:13:27.742Z,927.44
2019-02-03T01:13:40.839Z,927.46
2019-02-03T01:13:54.566Z,927.47
2019-02-03T01:14:07.635Z,927.47
2019-02-03T01:14:20.706Z,927.5
2019-02-03T01:14:33.890Z,927.53
2019-02-03T01:14:46.980Z,927.53
2019-02-03T01:15:00.548Z,927.58
2019-02-03T01:15:13.624Z,927.54
2019-02-03T01:15:26.724Z,927.53
2019-02-03T01:15:42.528Z,927.54
2019-02-03T01:15:55.598Z,927.55
2019-02-03T01:16:09.286Z,927.54
2019-02-03T01:16:22.285Z,927.6
2019-02-03T01:16:35.335Z,927.58
2019-02-03T01:16:48.366Z,927.59
2019-02-03T01:17:01.421Z,927.61
2019-02-03T01:17:14.992Z,927.54
2019-02-03T01:17:27.981Z,927.59
2019-02-03T01:17:41.091Z,927.61
2019-02-03T01:17:54.069Z,927.6
2019-02-03T01:18:08.013Z,927.59
2019-02-03T01:18:23.546Z,927.61
2019-02-03T01:18:36.703Z,927.6
2019-02-03T01:18:49.772Z,927.57
2019-02-03T01:19:02.853Z,927.6
2019-02-03T01:19:15.936Z,927.62
2019-02-03T01:19:29.623Z,927.63
2019-02-03T01:19:42.730Z,927.65
2019-02-03T01:19:55.746Z,927.64
2019-02-03T01:20:08.740Z,927.62
2019-02-03T01:20:21.788Z,927.66
2019-02-03T01:20:35.625Z,927.63
2019-02-03T01:20:49.030Z,927.64
2019-02-03T01:21:02.100Z,927.64
2019-02-03T01:21:15.183Z,927.65
2019-02-03T01:21:28.193Z,927.68
2019-02-03T01:21:41.614Z,927.64
2019-02-03T01:21:55.090Z,927.62
2019-02-03T01:22:08.285Z,927.64
2019-02-03T01:22:21.350Z,927.65
2019-02-03T01:22:34.453Z,927.65
2019-02-03T01:22:47.492Z,927.66
2019-02-03T01:23:00.644Z,927.68
2019-02-03T01:23:13.734Z,927.65
2019-02-03T01:23:26.734Z,927.65
2019-02-03T01:23:39.803Z,927.65
2019-02-03T01:23:52.891Z,927.64
2019-02-03T01:24:06.430Z,927.69
2019-02-03T01:24:19.455Z,927.63
2019-02-03T01:24:32.644Z,927.68
2019-02-03T01:24:45.696Z,927.65
2019-02-03T01:24:58.786Z,927.65
2019-02-03T01:25:12.245Z,927.66
2019-02-03T01:25:25.269Z,927.64
2019-02-03T01:25:38.364Z,927.67
2019-02-03T01:25:51.461Z,927.64
2019-02-03T01:26:04.497Z,927.71
2019-02-03T01:26:18.195Z,927.66
2019-02-03T01:26:31.486Z,927.65
2019-02-03T01:26:44.783Z,927.64
2019-02-03T01:26:57.794Z,927.67
2019-02-03T01:27:10.824Z,927.65
2019-02-03T01:27:24.232Z,927.66
2019-02-03T01:27:37.656Z,927.67
2019-02-03T01:27:50.691Z,927.65
2019-02-03T01:28:03.892Z,927.67
2019-02-03T01:28:16.922Z,927.72
2019-02-03T01:28:29.973Z,927.71
2019-02-03T01:28:43.487Z,927.68
2019-02-03T01:28:56.522Z,927.7
2019-02-03T01:29:09.615Z,927.67
2019-02-03T01:29:22.633Z,927.7
2019-02-03T01:29:35.626Z,927.7
2019-02-03T01:29:49.108Z,927.7
2019-02-03T01:30:02.146Z,927.73
2019-02-03T01:30:15.170Z,927.73
2019-02-03T01:30:28.263Z,927.68
2019-02-03T01:30:41.371Z,927.73
2019-02-03T01:30:55.003Z,927.71
2019-02-03T01:31:07.555Z,927.69
2019-02-03T01:31:20.198Z,927.73
2019-02-03T01:31:33.157Z,927.71
2019-02-03T01:31:48.878Z,927.74
2019-02-03T01:32:03.030Z,927.69
2019-02-03T01:32:16.052Z,927.76
2019-02-03T01:32:29.073Z,927.77
2019-02-03T01:32:42.149Z,927.77
2019-02-03T01:32:55.207Z,927.84
2019-02-03T01:33:08.650Z,927.82
2019-02-03T01:33:22.796Z,927.84
2019-02-03T01:33:35.796Z,927.87
2019-02-03T01:33:48.831Z,927.9
2019-02-03T01:34:01.902Z,927.89
2019-02-03T01:34:15.257Z,927.85
2019-02-03T01:34:28.781Z,927.9
2019-02-03T01:34:41.798Z,927.93
2019-02-03T01:34:54.847Z,927.94
2019-02-03T01:35:07.911Z,927.91
2019-02-03T01:35:20.493Z,928.02
2019-02-03T01:35:34.135Z,927.98
2019-02-03T01:35:47.204Z,928
2019-02-03T01:36:00.214Z,927.97
2019-02-03T01:36:13.272Z,928
2019-02-03T01:36:26.386Z,927.99
2019-02-03T01:36:39.896Z,928.01
2019-02-03T01:36:53.013Z,928.03
2019-02-03T01:37:06.083Z,927.99
2019-02-03T01:37:19.160Z,927.98
2019-02-03T01:37:43.639Z,927.95
2019-02-03T01:37:57.128Z,928.01
2019-02-03T01:38:10.196Z,928.05
2019-02-03T01:38:23.251Z,928.07
2019-02-03T01:38:36.286Z,928.07
2019-02-03T01:38:49.722Z,928
2019-02-03T01:39:03.004Z,928.02
2019-02-03T01:39:16.055Z,928.01
2019-02-03T01:39:29.064Z,927.99
2019-02-03T01:39:42.132Z,928.04
2019-02-03T01:39:55.162Z,928.03
2019-02-03T01:40:08.925Z,928.09
2019-02-03T01:40:22.090Z,928.05
2019-02-03T01:40:35.218Z,928.08
2019-02-03T01:40:48.287Z,928.04
2019-02-03T01:41:01.302Z,928.03
2019-02-03T01:41:14.897Z,928.03
2019-02-03T01:41:28.030Z,928.04
2019-02-03T01:41:41.049Z,928.05
2019-02-03T01:41:54.022Z,928.03
2019-02-03T01:42:07.005Z,928.03
2019-02-03T01:42:20.534Z,928
2019-02-03T01:42:33.528Z,928.03
2019-02-03T01:42:46.567Z,928.03
2019-02-03T01:42:59.141Z,928.01
2019-02-03T01:43:12.179Z,928.01
2019-02-03T01:43:25.866Z,928
2019-02-03T01:43:38.966Z,928
2019-02-03T01:43:52.019Z,928.07
2019-02-03T01:44:05.086Z,928.03
2019-02-03T01:44:18.055Z,928.01
2019-02-03T01:44:33.891Z,928.03
2019-02-03T01:44:47.077Z,927.95
2019-02-03T01:45:00.052Z,928
2019-02-03T01:45:13.067Z,927.98
2019-02-03T01:45:26.050Z,927.99
2019-02-03T01:45:39.390Z,927.95
2019-02-03T01:45:52.848Z,927.96
2019-02-03T01:46:05.933Z,927.95
2019-02-03T01:46:19.143Z,927.94
2019-02-03T01:46:32.170Z,927.94
2019-02-03T01:46:45.178Z,927.96
2019-02-03T01:46:58.831Z,927.96
2019-02-03T01:47:11.901Z,928.02
2019-02-03T01:47:24.976Z,928
2019-02-03T01:47:37.975Z,927.99
2019-02-03T01:47:51.042Z,927.99
2019-02-03T01:48:04.775Z,927.99
2019-02-03T01:48:17.786Z,927.94
2019-02-03T01:48:31.813Z,927.96
2019-02-03T01:48:44.872Z,928
2019-02-03T01:48:57.950Z,928
2019-02-03T01:49:11.326Z,927.99
2019-02-03T01:49:24.374Z,927.98
2019-02-03T01:49:37.455Z,927.99
2019-02-03T01:49:50.485Z,928
2019-02-03T01:50:03.203Z,928.02
2019-02-03T01:50:16.764Z,927.99
2019-02-03T01:50:29.527Z,928.01
2019-02-03T01:50:42.575Z,928.01
2019-02-03T01:50:55.563Z,928
2019-02-03T01:51:08.595Z,928
2019-02-03T01:51:22.047Z,928
2019-02-03T01:51:35.406Z,927.98
2019-02-03T01:51:48.447Z,927.97
2019-02-03T01:52:01.514Z,927.98
2019-02-03T01:52:14.595Z,927.98
2019-02-03T01:52:27.624Z,927.99
2019-02-03T01:52:41.322Z,927.97
2019-02-03T01:52:54.327Z,927.95
2019-02-03T01:53:07.395Z,927.96
2019-02-03T01:53:20.519Z,927.98
2019-02-03T01:53:33.580Z,927.92
2019-02-03T01:53:47.221Z,927.89
2019-02-03T01:54:00.314Z,927.9
2019-02-03T01:54:13.353Z,927.94
2019-02-03T01:54:26.451Z,927.97
2019-02-03T01:54:39.564Z,927.94
2019-02-03T01:54:53.168Z,927.93
2019-02-03T01:55:06.151Z,927.91
2019-02-03T01:55:19.201Z,927.94
2019-02-03T01:55:32.204Z,927.97
2019-02-03T01:55:45.182Z,927.94
2019-02-03T01:55:58.888Z,927.95
2019-02-03T01:56:11.671Z,927.94
2019-02-03T01:56:24.765Z,927.93
2019-02-03T01:56:37.821Z,927.93
2019-02-03T01:56:50.534Z,927.96
2019-02-03T01:57:03.922Z,927.94
2019-02-03T01:57:17.225Z,927.95
2019-02-03T01:57:30.334Z,927.91
2019-02-03T01:57:43.365Z,927.92
2019-02-03T01:57:56.425Z,927.96
2019-02-03T01:58:09.456Z,927.96
2019-02-03T01:58:22.988Z,927.99
2019-02-03T01:58:36.058Z,927.96
2019-02-03T01:58:49.203Z,927.95
2019-02-03T01:59:02.212Z,927.96
2019-02-03T01:59:15.224Z,928
2019-02-03T01:59:28.820Z,927.97
2019-02-03T01:59:41.930Z,927.99
2019-02-03T01:59:55.085Z,928.01
2019-02-03T02:00:08.175Z,928.04
2019-02-03T02:00:21.218Z,927.98
2019-02-03T02:00:34.861Z,928.04
2019-02-03T02:00:47.926Z,928.08
2019-02-03T02:01:01.037Z,928.08
2019-02-03T02:01:14.048Z,928.03
2019-02-03T02:01:27.063Z,928.1
2019-02-03T02:01:40.487Z,928.1
2019-02-03T02:01:53.587Z,928.17
2019-02-03T02:02:06.653Z,928.12
2019-02-03T02:02:19.708Z,928.11
2019-02-03T02:02:32.742Z,928.11
2019-02-03T02:02:46.151Z,928.16
2019-02-03T02:02:59.427Z,928.18
2019-02-03T02:03:12.483Z,928.16
2019-02-03T02:03:25.474Z,928.2
2019-02-03T02:03:38.934Z,928.28
2019-02-03T02:03:52.007Z,928.18
2019-02-03T02:04:05.277Z,928.22
2019-02-03T02:04:18.252Z,928.1
2019-02-03T02:04:31.258Z,928.17
2019-02-03T02:04:44.294Z,928.15
2019-02-03T02:04:57.253Z,928.11
2019-02-03T02:05:10.915Z,928.14
2019-02-03T02:05:23.967Z,928.22
2019-02-03T02:05:37.013Z,928.24
2019-02-03T02:05:50.040Z,928.32
2019-02-03T02:06:03.121Z,928.19
2019-02-03T02:06:16.658Z,928.32
2019-02-03T02:06:29.271Z,928.23
2019-02-03T02:06:42.288Z,928.16
2019-02-03T02:06:57.218Z,928.26
2019-02-03T02:07:10.240Z,928.12
2019-02-03T02:07:23.857Z,928.07
2019-02-03T02:07:36.841Z,928.27
2019-02-03T02:08:01.228Z,928.26
2019-02-03T02:08:14.276Z,928.23
2019-02-03T02:08:27.600Z,928.17
2019-02-03T02:08:41.128Z,928.13
2019-02-03T02:08:54.199Z,928.12
2019-02-03T02:09:06.718Z,928.09
2019-02-03T02:09:19.743Z,928.17
2019-02-03T02:09:32.769Z,928.09
2019-02-03T02:09:46.203Z,928.25
2019-02-03T02:09:59.246Z,928.25
2019-02-03T02:10:12.328Z,928.14
2019-02-03T02:10:25.332Z,928.12
2019-02-03T02:10:38.342Z,928.26
2019-02-03T02:10:51.923Z,928.15
2019-02-03T02:11:05.144Z,928.19
2019-02-03T02:11:18.202Z,928.2
2019-02-03T02:11:31.218Z,928.29
2019-02-03T02:11:44.245Z,928.21
2019-02-03T02:11:57.879Z,928.31
2019-02-03T02:12:10.943Z,928.21
2019-02-03T02:12:23.947Z,928.19
2019-02-03T02:12:36.933Z,928.22
2019-02-03T02:12:49.976Z,928.24
2019-02-03T02:13:03.381Z,928.25
2019-02-03T02:13:16.613Z,928.18
2019-02-03T02:13:29.668Z,928.2
2019-02-03T02:13:42.705Z,928.28
2019-02-03T02:13:55.725Z,928.26
2019-02-03T02:14:08.814Z,928.34
2019-02-03T02:14:22.504Z,928.19
2019-02-03T02:14:35.554Z,928.15
2019-02-03T02:14:48.624Z,928.18
2019-02-03T02:15:01.587Z,928.13
2019-02-03T02:15:14.611Z,928.2
2019-02-03T02:15:28.274Z,928.28
2019-02-03T02:15:41.275Z,928.28
2019-02-03T02:15:54.305Z,928.2
2019-02-03T02:16:07.356Z,928.32
2019-02-03T02:16:20.490Z,928.23
2019-02-03T02:16:34.061Z,928.26
2019-02-03T02:16:47.164Z,928.35
2019-02-03T02:17:00.186Z,928.19
2019-02-03T02:17:13.149Z,928.15
2019-02-03T02:17:26.185Z,928.28
2019-02-03T02:17:39.784Z,928.21
2019-02-03T02:17:53.052Z,928.23
2019-02-03T02:18:06.111Z,928.17
2019-02-03T02:18:19.126Z,928.19
2019-02-03T02:18:32.125Z,928.19
2019-02-03T02:18:46.098Z,928.21
2019-02-03T02:18:58.985Z,928.26
2019-02-03T02:19:12.073Z,928.35
2019-02-03T02:19:25.094Z,928.29
2019-02-03T02:19:38.178Z,928.29
2019-02-03T02:19:50.814Z,928.24
2019-02-03T02:20:04.616Z,928.3
2019-02-03T02:20:17.596Z,928.24
2019-02-03T02:20:30.664Z,928.25
2019-02-03T02:20:43.715Z,928.31
2019-02-03T02:20:56.787Z,928.25
2019-02-03T02:21:10.428Z,928.29
2019-02-03T02:21:23.467Z,928.28
2019-02-03T02:21:36.466Z,928.34
2019-02-03T02:21:49.546Z,928.29
2019-02-03T02:22:02.497Z,928.27
2019-02-03T02:22:15.917Z,928.31
2019-02-03T02:22:28.966Z,928.35
2019-02-03T02:22:41.975Z,928.35
2019-02-03T02:22:54.946Z,928.33
2019-02-03T02:23:07.970Z,928.4
2019-02-03T02:23:21.664Z,928.42
2019-02-03T02:23:34.903Z,928.38
2019-02-03T02:23:47.435Z,928.41
2019-02-03T02:24:00.555Z,928.39
2019-02-03T02:24:13.563Z,928.37
2019-02-03T02:24:26.932Z,928.46
2019-02-03T02:24:40.394Z,928.49
2019-02-03T02:24:53.469Z,928.46
2019-02-03T02:25:06.549Z,928.45
2019-02-03T02:25:19.616Z,928.45
2019-02-03T02:25:32.662Z,928.44
2019-02-03T02:25:46.240Z,928.48
2019-02-03T02:25:59.276Z,928.46
2019-02-03T02:26:12.281Z,928.46
2019-02-03T02:26:25.318Z,928.53
2019-02-03T02:26:38.313Z,928.49
2019-02-03T02:26:51.965Z,928.47
2019-02-03T02:27:04.952Z,928.45
2019-02-03T02:27:18.022Z,928.45
2019-02-03T02:27:31.050Z,928.47
2019-02-03T02:27:44.078Z,928.43
2019-02-03T02:27:57.712Z,928.43
2019-02-03T02:28:10.726Z,928.52
2019-02-03T02:28:23.798Z,928.49
2019-02-03T02:28:36.822Z,928.49
2019-02-03T02:28:49.864Z,928.51
2019-02-03T02:29:03.512Z,928.75
2019-02-03T02:29:16.813Z,928.52
2019-02-03T02:29:29.846Z,928.55
2019-02-03T02:29:42.905Z,928.59
2019-02-03T02:29:55.969Z,928.54
2019-02-03T02:30:09.280Z,928.63
2019-02-03T02:30:23.017Z,928.56
2019-02-03T02:30:36.252Z,928.63
2019-02-03T02:30:49.376Z,928.53
2019-02-03T02:31:02.481Z,928.69
2019-02-03T02:31:15.597Z,928.66
2019-02-03T02:31:29.176Z,928.69
2019-02-03T02:31:42.226Z,928.61
2019-02-03T02:31:55.257Z,928.68
2019-02-03T02:32:08.281Z,928.6
2019-02-03T02:32:21.337Z,928.59
2019-02-03T02:32:35.035Z,928.54
2019-02-03T02:32:47.986Z,928.58
2019-02-03T02:33:01.028Z,928.72
2019-02-03T02:33:14.114Z,928.61
2019-02-03T02:33:27.178Z,928.61
2019-02-03T02:33:41.209Z,928.64
2019-02-03T02:33:54.247Z,928.66
2019-02-03T02:34:07.551Z,928.64
2019-02-03T02:34:20.592Z,928.62
2019-02-03T02:34:33.671Z,928.57
2019-02-03T02:34:47.274Z,928.6
2019-02-03T02:35:00.605Z,928.7
2019-02-03T02:35:13.675Z,928.58
2019-02-03T02:35:26.673Z,928.49
2019-02-03T02:35:39.739Z,928.57
2019-02-03T02:35:53.143Z,928.6
2019-02-03T02:36:06.731Z,928.56
2019-02-03T02:36:19.844Z,928.52
2019-02-03T02:36:32.929Z,928.53
2019-02-03T02:36:45.919Z,928.55
2019-02-03T02:36:58.916Z,928.51
2019-02-03T02:37:12.519Z,928.52
2019-02-03T02:37:25.778Z,928.57
2019-02-03T02:37:38.900Z,928.63
2019-02-03T02:38:07.600Z,928.5
2019-02-03T02:38:21.269Z,928.51
2019-02-03T02:38:34.335Z,928.56
2019-02-03T02:38:47.107Z,928.66
2019-02-03T02:39:00.300Z,928.62
2019-02-03T02:39:13.350Z,928.54
2019-02-03T02:39:26.992Z,928.53
2019-02-03T02:39:42.394Z,928.47
2019-02-03T02:39:55.477Z,928.52
2019-02-03T02:40:22.145Z,928.42
2019-02-03T02:40:35.687Z,928.5
2019-02-03T02:40:48.654Z,928.49
2019-02-03T02:41:01.668Z,928.48
2019-02-03T02:41:14.718Z,928.47
2019-02-03T02:41:27.402Z,928.55
2019-02-03T02:41:40.960Z,928.54
2019-02-03T02:41:54.059Z,928.54
2019-02-03T02:42:07.121Z,928.54
2019-02-03T02:42:20.229Z,928.5
2019-02-03T02:42:33.270Z,928.51
2019-02-03T02:42:46.841Z,928.56
2019-02-03T02:43:00.267Z,928.5
2019-02-03T02:43:13.312Z,928.45
2019-02-03T02:43:26.427Z,928.56
2019-02-03T02:43:39.491Z,928.54
2019-02-03T02:43:52.513Z,928.57
2019-02-03T02:44:06.068Z,928.51
2019-02-03T02:44:18.679Z,928.55
2019-02-03T02:44:31.858Z,928.56
2019-02-03T02:44:44.918Z,928.56
2019-02-03T02:44:57.983Z,928.54
2019-02-03T02:45:11.599Z,928.55
2019-02-03T02:45:24.861Z,928.5
2019-02-03T02:45:37.513Z,928.53
2019-02-03T02:45:50.530Z,928.62
2019-02-03T02:46:03.559Z,928.51
2019-02-03T02:46:17.301Z,928.55
2019-02-03T02:46:30.389Z,928.48
2019-02-03T02:46:42.994Z,928.59
2019-02-03T02:46:55.973Z,928.52
2019-02-03T02:47:09.032Z,928.6
2019-02-03T02:47:22.525Z,928.42